Time;durP1;ratioP1;P1;durP2;ratioP2;P2;SDS_P1;SDS_P2;PMS_P1;PMS_P2;Temp;Humidity;BMP_temperature;BMP_pressure;BME280_temperature;BME280_humidity;BME280_pressure;Samples;Min_cycle;Max_cycle;Signal;HPM_P1;HPM_P2
2022/01/28 00:01:03;;;;;;;14.17;9.97;;;;;;;2.67;100.00;99357.69;5098086;28;20220;-64
2022/01/28 00:03:31;;;;;;;15.17;10.77;;;;;;;2.67;100.00;99356.81;5098024;28;20301;-64
2022/01/28 00:05:59;;;;;;;13.53;9.13;;;;;;;2.73;100.00;99356.69;5101419;28;20221;-64
2022/01/28 00:08:26;;;;;;;13.33;8.90;;;;;;;2.82;100.00;99357.38;5098064;28;20218;-64
2022/01/28 00:10:53;;;;;;;13.77;9.63;;;;;;;2.84;100.00;99360.84;5097730;28;20214;-64
2022/01/28 00:13:23;;;;;;;15.53;9.00;;;;;;;2.92;100.00;99364.16;5094045;28;20595;-64
2022/01/28 00:16:09;;;;;;;10.97;7.67;;;;;;;2.92;100.00;99369.38;5101548;28;20237;-64
2022/01/28 00:38:07;;;;;;;10.53;7.43;;;;;;;3.35;100.00;99398.09;5097396;28;20209;-64
2022/01/28 00:40:34;;;;;;;9.93;7.50;;;;;;;3.37;100.00;99398.94;5096748;28;20222;-64
2022/01/28 00:43:01;;;;;;;12.30;8.17;;;;;;;3.35;100.00;99398.09;5098568;28;20214;-64
2022/01/28 00:45:28;;;;;;;10.87;8.03;;;;;;;3.36;100.00;99400.69;5100531;28;20217;-64
2022/01/28 00:47:55;;;;;;;11.50;8.03;;;;;;;3.38;100.00;99396.31;5097506;28;20211;-64
2022/01/28 00:50:22;;;;;;;11.03;7.67;;;;;;;3.36;100.00;99398.06;5097219;28;20672;-64
2022/01/28 00:52:49;;;;;;;9.93;7.03;;;;;;;3.31;100.00;99389.47;5097716;28;20234;-64
2022/01/28 00:55:16;;;;;;;10.37;7.43;;;;;;;3.35;100.00;99391.13;5100366;28;20217;-64
2022/01/28 00:57:43;;;;;;;11.17;7.30;;;;;;;3.33;100.00;99392.06;5097450;28;20241;-64
2022/01/28 01:00:12;;;;;;;9.87;7.10;;;;;;;3.33;100.00;99385.09;5097372;28;20558;-64
2022/01/28 01:02:39;;;;;;;9.37;7.20;;;;;;;3.33;100.00;99390.31;5097661;28;20240;-65
2022/01/28 01:05:06;;;;;;;9.97;7.23;;;;;;;3.38;100.00;99391.09;5098886;28;20213;-64
2022/01/28 01:07:32;;;;;;;9.60;6.93;;;;;;;3.38;100.00;99396.31;5101347;28;20222;-65
2022/01/28 01:09:59;;;;;;;8.53;6.50;;;;;;;3.30;100.00;99382.53;5101283;28;20218;-64
2022/01/28 01:12:29;;;;;;;9.07;6.23;;;;;;;3.26;100.00;99386.09;5107517;28;20249;-64
2022/01/28 01:14:56;;;;;;;9.37;6.93;;;;;;;3.19;100.00;99388.88;5104426;28;20291;-65
2022/01/28 01:17:30;;;;;;;10.13;6.37;;;;;;;3.01;100.00;99389.22;5101259;28;20213;-65
2022/01/28 01:20:11;;;;;;;8.87;6.80;;;;;;;2.88;100.00;99391.19;5100913;28;20214;-64
2022/01/28 01:22:39;;;;;;;10.17;7.37;;;;;;;2.69;100.00;99395.03;5104420;28;20218;-65
2022/01/28 01:25:15;;;;;;;12.00;7.93;;;;;;;2.68;100.00;99402.88;5101546;28;20212;-65
2022/01/28 01:27:47;;;;;;;10.13;7.20;;;;;;;2.64;100.00;99403.84;5101105;28;20580;-64
2022/01/28 01:30:15;;;;;;;11.97;7.80;;;;;;;2.65;100.00;99400.34;5100688;28;20219;-65
2022/01/28 01:32:42;;;;;;;12.77;7.90;;;;;;;2.57;100.00;99403.09;5103429;28;20576;-64
2022/01/28 01:35:09;;;;;;;13.37;8.37;;;;;;;2.48;100.00;99402.38;5100961;28;20212;-65
2022/01/28 01:37:35;;;;;;;10.27;7.83;;;;;;;2.45;100.00;99403.28;5099695;28;20210;-64
2022/01/28 01:40:02;;;;;;;11.37;7.43;;;;;;;2.41;100.00;99406.88;5098497;28;20297;-65
2022/01/28 01:42:36;;;;;;;12.47;8.43;;;;;;;2.21;100.00;99406.31;5103770;28;20309;-65
2022/01/28 01:53:21;;;;;;;15.17;9.27;;;;;;;1.83;100.00;99416.47;5100238;28;20265;-64
2022/01/28 01:55:48;;;;;;;15.27;9.50;;;;;;;1.81;100.00;99422.56;5101742;28;20586;-64
2022/01/28 01:58:15;;;;;;;14.67;9.67;;;;;;;1.76;100.00;99430.47;5101368;28;20225;-64
2022/01/28 02:00:43;;;;;;;16.00;9.60;;;;;;;1.74;100.00;99453.09;5085051;28;20219;-65
2022/01/28 02:03:09;;;;;;;14.10;9.83;;;;;;;1.74;100.00;99458.31;5085395;28;20212;-65
2022/01/28 02:05:36;;;;;;;14.67;9.97;;;;;;;1.67;100.00;99459.25;5087005;28;20215;-64
2022/01/28 02:08:06;;;;;;;13.47;8.60;;;;;;;1.67;100.00;99459.25;5091945;28;20214;-65
2022/01/28 02:10:33;;;;;;;14.97;9.27;;;;;;;1.58;100.00;99464.59;5084816;28;20721;-65
2022/01/28 02:13:00;;;;;;;17.07;9.00;;;;;;;1.64;100.00;99467.09;5093062;28;20242;-65
2022/01/28 02:15:26;;;;;;;16.03;9.77;;;;;;;1.58;100.00;99467.19;5101014;28;20243;-65
2022/01/28 02:17:54;;;;;;;15.97;10.17;;;;;;;1.49;100.00;99477.75;5101792;28;20217;-65
2022/01/28 02:20:29;;;;;;;18.73;10.53;;;;;;;1.48;100.00;99476.00;5099954;28;20218;-65
2022/01/28 02:22:56;;;;;;;14.23;9.83;;;;;;;1.47;100.00;99478.63;5097921;28;20214;-64
2022/01/28 02:25:28;;;;;;;17.07;10.00;;;;;;;1.45;100.00;99473.44;5101485;28;20211;-65
2022/01/28 02:27:56;;;;;;;12.90;8.47;;;;;;;1.48;100.00;99475.16;5101159;28;20217;-65
2022/01/28 02:30:22;;;;;;;18.00;10.37;;;;;;;1.42;100.00;99476.06;5099958;28;20301;-64
2022/01/28 02:32:50;;;;;;;14.77;9.33;;;;;;;1.47;100.00;99479.47;5099474;28;20288;-65
2022/01/28 02:35:17;;;;;;;15.93;10.20;;;;;;;1.44;100.00;99479.53;5102182;28;20307;-65
2022/01/28 02:37:45;;;;;;;16.90;9.93;;;;;;;1.47;100.00;99482.09;5101198;28;20209;-65
2022/01/28 02:40:13;;;;;;;16.13;9.97;;;;;;;1.67;100.00;99469.66;5099596;28;20210;-65
2022/01/28 02:42:51;;;;;;;17.27;10.40;;;;;;;1.71;100.00;99473.13;5099253;28;20669;-64
2022/01/28 02:45:26;;;;;;;13.30;9.13;;;;;;;1.73;100.00;99463.53;5094928;28;20582;-65
2022/01/28 02:47:57;;;;;;;15.50;9.63;;;;;;;1.76;100.00;99466.06;5088210;28;20222;-64
2022/01/28 02:50:26;;;;;;;14.57;9.50;;;;;;;1.83;100.00;99468.59;5097720;28;20319;-65
2022/01/28 02:53:03;;;;;;;14.37;9.20;;;;;;;1.99;100.00;99475.34;5098026;28;20262;-65
2022/01/28 02:55:31;;;;;;;13.00;9.10;;;;;;;2.02;100.00;99470.06;5099965;28;20213;-64
2022/01/28 02:58:14;;;;;;;14.97;9.10;;;;;;;2.05;100.00;99467.41;5099210;28;20572;-65
2022/01/28 03:00:41;;;;;;;13.60;9.17;;;;;;;1.97;100.00;99466.66;5100230;28;20230;-65
2022/01/28 03:03:08;;;;;;;14.20;9.17;;;;;;;1.99;100.00;99480.53;5102092;28;20216;-65
2022/01/28 03:05:34;;;;;;;14.53;8.97;;;;;;;2.00;100.00;99482.25;5099218;28;20214;-65
2022/01/28 03:08:04;;;;;;;13.47;8.63;;;;;;;2.02;100.00;99477.03;5098840;28;20252;-65
2022/01/28 03:10:41;;;;;;;14.27;9.30;;;;;;;2.07;100.00;99481.28;5100083;28;20572;-65
2022/01/28 03:13:33;;;;;;;13.77;8.97;;;;;;;2.00;100.00;99487.47;5106001;28;20637;-65
2022/01/28 03:16:09;;;;;;;13.27;8.90;;;;;;;1.98;100.00;99486.66;5097369;28;20238;-64
2022/01/28 03:18:47;;;;;;;13.60;8.07;;;;;;;1.89;100.00;99489.38;5101656;28;20213;-64
2022/01/28 03:21:24;;;;;;;13.33;8.50;;;;;;;1.90;100.00;99483.25;5086897;28;20257;-64
2022/01/28 03:23:53;;;;;;;16.73;9.00;;;;;;;1.88;100.00;99486.78;5098802;28;20214;-65
2022/01/28 03:26:20;;;;;;;13.50;8.40;;;;;;;1.97;100.00;99497.94;5099999;28;20215;-65
2022/01/28 03:28:46;;;;;;;14.33;8.80;;;;;;;1.97;100.00;99497.94;5100960;28;20213;-64
2022/01/28 03:31:13;;;;;;;12.63;8.53;;;;;;;2.16;100.00;99489.00;5098691;28;20207;-65
2022/01/28 03:33:39;;;;;;;12.20;7.80;;;;;;;2.29;100.00;99490.53;5098493;28;20238;-64
2022/01/28 03:36:09;;;;;;;11.83;7.80;;;;;;;2.41;100.00;99490.34;5099584;28;20224;-64
2022/01/28 03:38:35;;;;;;;13.33;8.40;;;;;;;2.42;100.00;99483.38;5100628;28;20673;-65
2022/01/28 03:41:04;;;;;;;12.10;8.10;;;;;;;2.51;100.00;99485.84;5096811;28;20245;-65
2022/01/28 03:43:30;;;;;;;11.03;8.17;;;;;;;2.54;100.00;99485.78;5098414;28;20219;-64
2022/01/28 03:45:57;;;;;;;12.57;7.87;;;;;;;2.57;100.00;99485.75;5099245;28;20211;-65
2022/01/28 03:48:23;;;;;;;12.33;8.70;;;;;;;2.59;100.00;99500.50;5100847;28;20210;-65
2022/01/28 03:50:51;;;;;;;13.00;7.80;;;;;;;2.62;100.00;99497.84;5097934;28;20214;-64
2022/01/28 03:53:18;;;;;;;11.67;7.97;;;;;;;2.66;100.00;99502.13;5097776;28;20258;-65
2022/01/28 03:55:45;;;;;;;10.43;7.53;;;;;;;2.64;100.00;99503.88;5099003;28;20212;-65
2022/01/28 03:58:13;;;;;;;13.97;8.57;;;;;;;2.66;100.00;99512.56;5100763;28;20699;-65
2022/01/28 04:00:40;;;;;;;12.47;8.00;;;;;;;2.63;100.00;99515.22;5098145;28;20210;-65
2022/01/28 04:03:10;;;;;;;10.83;7.13;;;;;;;2.62;100.00;99520.44;5097747;28;20214;-65
2022/01/28 04:13:52;;;;;;;14.53;8.57;;;;;;;2.48;100.00;99532.84;5096555;28;20321;-65
2022/01/28 04:16:31;;;;;;;15.00;8.33;;;;;;;2.39;100.00;99539.06;5086405;28;20680;-65
2022/01/28 04:19:01;;;;;;;14.97;9.03;;;;;;;2.24;100.00;99543.63;5097531;28;20218;-65
2022/01/28 04:21:28;;;;;;;14.97;8.47;;;;;;;2.19;100.00;99541.09;5099933;28;20210;-65
2022/01/28 04:23:54;;;;;;;12.93;8.77;;;;;;;2.14;100.00;99542.06;5099441;28;20221;-65
2022/01/28 04:26:21;;;;;;;13.60;8.97;;;;;;;2.11;100.00;99545.56;5097793;28;20214;-65
2022/01/28 04:28:47;;;;;;;13.47;8.53;;;;;;;2.06;100.00;99549.09;5097728;28;20233;-65
2022/01/28 04:31:15;;;;;;;15.80;8.70;;;;;;;2.06;100.00;99560.41;5099522;28;20588;-65
2022/01/28 04:33:41;;;;;;;14.50;8.77;;;;;;;2.00;100.00;99563.09;5097673;28;20695;-65
2022/01/28 04:36:11;;;;;;;13.93;8.90;;;;;;;2.00;100.00;99570.91;5097301;28;20226;-65
2022/01/28 04:38:44;;;;;;;13.80;9.17;;;;;;;1.95;100.00;99577.94;5097296;28;20268;-65
2022/01/28 04:41:18;;;;;;;15.97;8.83;;;;;;;2.00;100.00;99581.34;5099833;28;20631;-65
2022/01/28 04:43:49;;;;;;;13.73;7.93;;;;;;;1.90;100.00;99582.31;5097661;28;20218;-65
2022/01/28 04:46:27;;;;;;;13.73;8.67;;;;;;;1.79;100.00;99592.00;5097756;28;20232;-65
2022/01/28 04:49:00;;;;;;;15.30;9.53;;;;;;;1.68;100.00;99603.44;5098933;28;20210;-65
2022/01/28 04:51:44;;;;;;;16.43;9.33;;;;;;;1.60;100.00;99595.69;5098832;28;20211;-65
2022/01/28 04:54:24;;;;;;;17.43;10.27;;;;;;;1.49;100.00;99607.13;5097334;28;20261;-65
2022/01/28 04:56:59;;;;;;;15.13;9.30;;;;;;;1.45;100.00;99606.28;5099319;28;20306;-65
2022/01/28 04:59:38;;;;;;;16.80;9.70;;;;;;;1.44;100.00;99601.97;5096544;28;20229;-65
2022/01/28 05:07:47;;;;;;;17.30;10.53;;;;;;;1.39;100.00;99603.75;5084009;28;20355;-66
2022/01/28 05:10:40;;;;;;;20.63;11.40;;;;;;;1.33;100.00;99601.19;5097173;28;20214;-65
2022/01/28 05:26:54;;;;;;;23.43;11.90;;;;;;;1.32;100.00;99599.47;5093484;28;20217;-65
2022/01/28 05:29:21;;;;;;;20.40;12.17;;;;;;;1.31;100.00;99599.47;5097003;28;20211;-65
2022/01/28 05:31:47;;;;;;;21.97;11.90;;;;;;;1.26;100.00;99609.94;5096876;28;20214;-66
2022/01/28 05:34:16;;;;;;;20.27;11.40;;;;;;;1.27;100.00;99611.69;5099020;28;20245;-66
2022/01/28 05:36:42;;;;;;;18.13;11.40;;;;;;;1.30;100.00;99596.00;5098429;28;20210;-65
2022/01/28 05:39:09;;;;;;;19.60;11.70;;;;;;;1.27;100.00;99600.38;5096972;28;20217;-66
2022/01/28 05:41:35;;;;;;;21.90;11.50;;;;;;;1.22;100.00;99608.25;5097007;28;20211;-65
2022/01/28 05:44:02;;;;;;;21.23;10.83;;;;;;;1.20;100.00;99610.00;5098842;28;20211;-66
2022/01/28 05:46:29;;;;;;;20.93;11.40;;;;;;;1.23;100.00;99609.97;5098692;28;20308;-65
2022/01/28 05:48:55;;;;;;;17.63;11.43;;;;;;;1.20;100.00;99610.00;5096644;28;20218;-65
2022/01/28 05:51:24;;;;;;;20.87;11.23;;;;;;;1.17;100.00;99604.81;5095219;28;20582;-65
2022/01/28 05:53:50;;;;;;;21.57;11.50;;;;;;;1.18;100.00;99614.34;5101056;28;20230;-65
2022/01/28 05:56:17;;;;;;;22.43;11.77;;;;;;;1.17;100.00;99620.44;5102570;28;20293;-65
2022/01/28 05:58:43;;;;;;;19.30;11.23;;;;;;;1.21;100.00;99624.75;5100433;28;20215;-65
2022/01/28 06:01:10;;;;;;;18.73;11.20;;;;;;;1.25;100.00;99639.47;5100371;28;20207;-65
2022/01/28 06:03:36;;;;;;;21.10;11.63;;;;;;;1.18;100.00;99637.78;5101216;28;20225;-65
2022/01/28 06:06:03;;;;;;;17.97;11.43;;;;;;;1.22;100.00;99647.31;5103111;28;20209;-65
2022/01/28 06:08:31;;;;;;;17.50;10.60;;;;;;;1.22;100.00;99649.06;5100103;28;20218;-65
2022/01/28 06:10:57;;;;;;;18.20;10.50;;;;;;;1.21;100.00;99653.41;5100108;28;20582;-65
2022/01/28 06:13:24;;;;;;;19.90;11.37;;;;;;;1.25;100.00;99659.44;5100526;28;20215;-65
2022/01/28 06:15:50;;;;;;;18.43;10.10;;;;;;;1.22;100.00;99669.91;5103088;28;20246;-65
2022/01/28 06:18:16;;;;;;;18.33;10.67;;;;;;;1.18;100.00;99670.78;5098368;28;20571;-65
2022/01/28 06:20:43;;;;;;;17.70;10.83;;;;;;;1.20;100.00;99688.13;5099607;28;20226;-66
2022/01/28 06:23:11;;;;;;;16.80;10.77;;;;;;;1.18;100.00;99695.06;5100263;28;20655;-66
2022/01/28 06:25:40;;;;;;;18.90;9.97;;;;;;;1.26;100.00;99688.09;5103129;28;20214;-66
2022/01/28 06:28:06;;;;;;;20.10;11.60;;;;;;;1.22;100.00;99704.59;5099475;28;20667;-65
2022/01/28 06:30:33;;;;;;;18.67;11.30;;;;;;;1.34;100.00;99703.63;5099543;28;20218;-65
2022/01/28 06:32:59;;;;;;;17.80;11.63;;;;;;;1.35;100.00;99711.44;5100102;28;20211;-66
2022/01/28 06:35:26;;;;;;;20.27;11.03;;;;;;;1.36;100.00;99733.16;5103320;28;20249;-66
2022/01/28 06:37:52;;;;;;;19.23;11.50;;;;;;;1.43;100.00;99733.09;5082587;28;20223;-65
2022/01/28 06:40:19;;;;;;;18.50;11.33;;;;;;;1.44;100.00;99740.03;5091787;28;20213;-65
2022/01/28 06:42:47;;;;;;;23.03;12.10;;;;;;;1.34;100.00;99740.97;5097891;28;20241;-65
2022/01/28 06:45:13;;;;;;;20.23;11.80;;;;;;;1.32;100.00;99737.53;5095043;28;20282;-65
2022/01/28 06:47:40;;;;;;;23.33;12.50;;;;;;;1.28;100.00;99738.41;5099584;28;20215;-65
2022/01/28 06:50:09;;;;;;;23.97;12.17;;;;;;;1.44;100.00;99741.75;5099430;28;20226;-65
2022/01/28 06:52:37;;;;;;;24.40;12.73;;;;;;;1.53;100.00;99734.75;5099373;28;20221;-65
2022/01/28 06:55:05;;;;;;;21.70;12.63;;;;;;;1.65;100.00;99731.19;5094795;28;20321;-65
2022/01/28 06:57:31;;;;;;;21.87;12.20;;;;;;;1.69;100.00;99733.75;5086750;28;20661;-65
2022/01/28 07:00:00;;;;;;;22.50;11.50;;;;;;;1.72;100.00;99741.53;5098977;28;20694;-65
2022/01/28 07:02:27;;;;;;;21.97;11.87;;;;;;;1.76;100.00;99743.22;5098858;28;20221;-65
2022/01/28 07:04:54;;;;;;;20.60;11.27;;;;;;;1.80;100.00;99738.84;5094147;28;20211;-65
2022/01/28 07:07:22;;;;;;;16.67;11.00;;;;;;;1.87;100.00;99745.75;5099105;28;20591;-65
2022/01/28 07:09:49;;;;;;;17.83;11.30;;;;;;;1.79;100.00;99752.78;5097037;28;20211;-65
2022/01/28 07:12:16;;;;;;;18.00;10.50;;;;;;;1.69;100.00;99736.34;5103407;28;20237;-65
2022/01/28 07:14:42;;;;;;;17.60;10.27;;;;;;;1.67;100.00;99738.09;5081712;28;20641;-65
2022/01/28 07:17:11;;;;;;;15.83;10.07;;;;;;;1.64;100.00;99738.13;5099189;28;20214;-65
2022/01/28 07:19:37;;;;;;;18.70;10.73;;;;;;;1.53;100.00;99734.75;5098666;28;20207;-65
2022/01/28 07:22:05;;;;;;;19.20;9.93;;;;;;;1.54;100.00;99741.69;5098653;28;20218;-65
2022/01/28 07:24:31;;;;;;;18.03;10.00;;;;;;;1.46;100.00;99743.47;5102299;28;20210;-65
2022/01/28 07:26:58;;;;;;;17.03;10.00;;;;;;;1.47;100.00;99737.38;5098744;28;20218;-65
2022/01/28 07:29:28;;;;;;;17.93;10.13;;;;;;;1.56;100.00;99745.16;5098411;28;20217;-65
2022/01/28 07:31:55;;;;;;;19.97;11.13;;;;;;;1.57;100.00;99746.88;5098718;28;20222;-65
2022/01/28 07:34:23;;;;;;;17.60;11.03;;;;;;;1.68;100.00;99749.38;5101058;28;20240;-65
2022/01/28 07:36:49;;;;;;;17.33;10.33;;;;;;;1.82;100.00;99757.94;5098185;28;20215;-65
2022/01/28 07:39:16;;;;;;;19.00;10.23;;;;;;;1.94;100.00;99758.72;5098588;28;20225;-65
2022/01/28 07:41:42;;;;;;;15.43;10.10;;;;;;;2.04;100.00;99760.38;5098213;28;20222;-65
2022/01/28 07:44:11;;;;;;;16.67;10.20;;;;;;;2.04;100.00;99760.38;5101378;28;20683;-65
2022/01/28 07:46:37;;;;;;;16.20;10.17;;;;;;;2.13;100.00;99768.09;5098645;28;20215;-65
2022/01/28 07:49:05;;;;;;;16.07;10.53;;;;;;;2.18;100.00;99773.25;5098130;28;20225;-65
2022/01/28 07:51:35;;;;;;;17.33;10.40;;;;;;;2.20;100.00;99772.34;5098306;28;20218;-65
2022/01/28 07:54:02;;;;;;;18.30;10.23;;;;;;;2.29;100.00;99777.50;5090682;28;20585;-65
2022/01/28 07:56:29;;;;;;;16.93;10.03;;;;;;;2.45;100.00;99778.19;5098374;28;20206;-65
2022/01/28 07:58:55;;;;;;;19.60;10.60;;;;;;;2.48;100.00;99778.16;5097873;28;20710;-65
2022/01/28 08:01:22;;;;;;;17.77;9.93;;;;;;;2.49;100.00;99785.97;5096147;28;20210;-65
2022/01/28 08:03:48;;;;;;;17.10;9.57;;;;;;;2.59;100.00;99798.03;5100906;28;20240;-65
2022/01/28 08:06:15;;;;;;;14.07;9.43;;;;;;;2.71;100.00;99803.13;5098668;28;21258;-65
2022/01/28 08:08:42;;;;;;;14.80;9.20;;;;;;;2.78;100.00;99801.28;5097687;28;20676;-65
2022/01/28 08:11:09;;;;;;;15.17;8.97;;;;;;;2.77;100.00;99807.41;5098000;28;20211;-65
2022/01/28 08:13:35;;;;;;;17.00;9.10;;;;;;;2.72;100.00;99797.00;5100494;28;20584;-65
2022/01/28 08:16:02;;;;;;;14.97;9.37;;;;;;;2.71;100.00;99813.56;5098046;28;20252;-65
2022/01/28 08:18:28;;;;;;;12.73;8.67;;;;;;;2.84;100.00;99820.38;5097932;28;20206;-65
2022/01/28 08:20:55;;;;;;;14.30;8.63;;;;;;;2.86;100.00;99823.81;5097877;28;20223;-66
2022/01/28 08:23:21;;;;;;;13.07;8.17;;;;;;;2.93;100.00;99822.00;5099891;28;20218;-65
2022/01/28 08:25:53;;;;;;;14.90;8.37;;;;;;;2.95;100.00;99820.22;5099396;28;20213;-65
2022/01/28 08:28:20;;;;;;;12.80;7.53;;;;;;;3.02;100.00;99814.91;5096102;28;20214;-65
2022/01/28 08:30:47;;;;;;;14.53;7.80;;;;;;;3.13;100.00;99823.47;5097342;28;20218;-65
2022/01/28 08:33:13;;;;;;;17.07;7.83;;;;;;;3.28;100.00;99830.22;5099733;28;20206;-65
2022/01/28 08:35:40;;;;;;;13.00;7.60;;;;;;;3.28;100.00;99822.41;5098972;28;20233;-65
2022/01/28 08:38:14;;;;;;;12.73;7.30;;;;;;;3.39;100.00;99837.06;5103633;28;20675;-65
2022/01/28 08:40:41;;;;;;;14.43;8.47;;;;;;;3.47;100.00;99840.44;5086498;28;20211;-65
2022/01/28 08:43:09;;;;;;;11.30;7.30;;;;;;;3.45;100.00;99850.03;5099729;28;20696;-65
2022/01/28 08:45:35;;;;;;;12.50;6.93;;;;;;;3.49;100.00;99854.31;5098387;28;20217;-65
2022/01/28 08:48:01;;;;;;;10.83;7.17;;;;;;;3.57;100.00;99862.06;5097603;28;20238;-65
2022/01/28 08:50:28;;;;;;;10.23;6.67;;;;;;;3.60;100.00;99868.13;5097278;28;20221;-65
2022/01/28 08:52:55;;;;;;;13.37;7.20;;;;;;;3.60;100.00;99868.13;5098609;28;20214;-65
2022/01/28 08:55:21;;;;;;;7.73;5.50;;;;;;;3.75;100.00;99860.06;5098693;28;20238;-65
2022/01/28 08:57:47;;;;;;;9.23;6.20;;;;;;;3.84;100.00;99856.47;5097184;28;20739;-65
2022/01/28 09:00:18;;;;;;;13.03;6.90;;;;;;;3.88;100.00;99853.75;5097308;28;20587;-65
2022/01/28 09:02:44;;;;;;;11.70;6.03;;;;;;;3.95;100.00;99858.00;5099951;28;20222;-66
2022/01/28 09:05:11;;;;;;;11.50;6.60;;;;;;;3.97;100.00;99858.84;5098974;28;20217;-66
2022/01/28 09:07:37;;;;;;;9.63;6.37;;;;;;;3.97;100.00;99856.22;5093927;28;20218;-65
2022/01/28 09:10:10;;;;;;;10.00;5.60;;;;;;;4.08;100.00;99846.47;5091296;28;20757;-65
2022/01/28 09:12:46;;;;;;;11.57;5.60;;;;;;;4.06;100.00;99855.22;5104824;28;20226;-66
2022/01/28 09:15:13;;;;;;;7.87;5.20;;;;;;;4.10;100.00;99859.53;5084819;28;20341;-65
2022/01/28 09:17:41;;;;;;;10.13;6.88;;;;;;;4.20;100.00;99854.09;5093232;28;20535;-64
2022/01/28 09:20:09;;;;;;;10.43;5.77;;;;;;;4.27;100.00;99847.88;5094411;28;20217;-63
2022/01/28 09:22:36;;;;;;;11.90;6.85;;;;;;;4.45;100.00;99841.47;5090596;28;21221;-65
2022/01/28 09:25:04;;;;;;;8.77;5.60;;;;;;;4.49;100.00;99844.00;5094193;28;20211;-65
2022/01/28 09:27:31;;;;;;;7.87;5.20;;;;;;;4.63;100.00;99849.84;5086393;28;20222;-65
2022/01/28 09:29:57;;;;;;;14.23;5.63;;;;;;;4.59;100.00;99852.56;5095853;28;20225;-65
2022/01/28 09:32:24;;;;;;;9.93;5.13;;;;;;;4.65;100.00;99855.91;5105421;28;20214;-64
2022/01/28 09:34:52;;;;;;;8.93;4.57;;;;;;;4.76;98.92;99859.19;5094454;28;20226;-67
2022/01/28 09:37:18;;;;;;;6.33;4.53;;;;;;;4.83;98.19;99860.81;5094133;28;20207;-64
2022/01/28 09:39:46;;;;;;;7.07;4.33;;;;;;;4.86;96.77;99849.41;5093460;28;20664;-67
2022/01/28 09:42:14;;;;;;;7.57;5.20;;;;;;;4.80;97.48;99855.63;5099398;28;20263;-67
2022/01/28 09:44:42;;;;;;;7.60;4.90;;;;;;;4.82;97.98;99863.47;5091131;28;20216;-67
2022/01/28 09:47:10;;;;;;;7.20;4.47;;;;;;;4.84;97.49;99845.97;5092724;28;20220;-66
2022/01/28 09:49:37;;;;;;;7.33;4.03;;;;;;;4.96;96.30;99853.59;5103555;28;20213;-67
2022/01/28 09:52:07;;;;;;;6.10;3.70;;;;;;;5.09;96.44;99855.94;5080864;28;20222;-65
2022/01/28 09:54:34;;;;;;;8.47;4.63;;;;;;;5.19;95.78;99860.06;5095584;28;20215;-66
2022/01/28 09:57:01;;;;;;;6.50;4.13;;;;;;;5.29;95.41;99872.13;5097363;28;20230;-68
2022/01/28 09:59:27;;;;;;;6.90;4.20;;;;;;;5.32;95.00;99866.78;5094405;28;20645;-64
2022/01/28 10:01:55;;;;;;;8.67;4.57;;;;;;;5.24;94.10;99865.22;5102682;28;20213;-66
2022/01/28 10:04:22;;;;;;;8.13;5.00;;;;;;;5.28;94.37;99882.63;5098761;28;20223;-66
2022/01/28 10:06:54;;;;;;;7.10;4.83;;;;;;;5.19;93.58;99881.03;5094422;28;20215;-64
2022/01/28 10:09:23;;;;;;;7.80;4.60;;;;;;;5.16;93.55;99881.13;5092755;28;20221;-66
2022/01/28 10:11:53;;;;;;;10.93;5.30;;;;;;;5.19;95.65;99886.28;5108572;28;20221;-66
2022/01/28 10:14:22;;;;;;;8.60;4.70;;;;;;;5.01;95.36;99875.31;5090875;28;20209;-66
2022/01/28 10:16:56;;;;;;;8.90;4.73;;;;;;;4.77;97.23;99866.16;5099352;28;20266;-67
2022/01/28 10:19:26;;;;;;;11.43;4.73;;;;;;;4.68;98.01;99868.97;5107220;28;20220;-66
2022/01/28 10:21:52;;;;;;;8.40;4.63;;;;;;;4.67;99.29;99862.00;5108963;28;20562;-66
2022/01/28 10:24:20;;;;;;;8.13;4.30;;;;;;;4.75;98.77;99872.31;5108616;28;20211;-66
2022/01/28 10:26:50;;;;;;;9.57;4.83;;;;;;;4.88;98.33;99863.34;5102522;28;20234;-66
2022/01/28 10:29:19;;;;;;;8.57;4.67;;;;;;;4.89;97.99;99859.84;5107728;28;20213;-67
2022/01/28 10:31:49;;;;;;;8.00;4.30;;;;;;;4.86;97.48;99859.88;5108654;28;20211;-66
2022/01/28 10:34:19;;;;;;;5.67;4.30;;;;;;;4.77;97.16;99860.06;5107934;28;20215;-66
2022/01/28 10:36:47;;;;;;;6.17;4.27;;;;;;;4.68;99.19;99870.69;5104489;28;20242;-66
2022/01/28 10:39:15;;;;;;;9.73;5.30;;;;;;;4.51;98.57;99857.91;5105892;28;20220;-66
2022/01/28 10:41:56;;;;;;;7.93;4.47;;;;;;;4.48;99.20;99855.38;5108508;28;20211;-66
2022/01/28 10:44:24;;;;;;;6.77;3.90;;;;;;;4.55;99.88;99849.13;5105295;28;20214;-67
2022/01/28 10:46:57;;;;;;;9.47;4.50;;;;;;;4.62;99.74;99849.88;5106346;28;20252;-68
2022/01/28 10:49:33;;;;;;;5.70;3.80;;;;;;;4.75;97.67;99852.22;5108278;28;20214;-66
2022/01/28 10:52:07;;;;;;;6.83;3.17;;;;;;;4.86;98.48;99850.28;5106878;28;20210;-65
2022/01/28 10:54:35;;;;;;;7.83;3.67;;;;;;;5.01;97.04;99862.22;5104678;28;20215;-66
2022/01/28 10:57:06;;;;;;;5.93;3.73;;;;;;;5.17;95.19;99861.88;5108087;28;20267;-65
2022/01/28 10:59:34;;;;;;;5.10;3.43;;;;;;;5.36;94.31;99855.34;5108105;28;20215;-66
2022/01/28 11:02:01;;;;;;;6.77;3.73;;;;;;;5.60;90.66;99857.44;5105363;28;20211;-65
2022/01/28 11:04:27;;;;;;;9.73;3.33;;;;;;;5.75;90.94;99870.19;5080515;28;20219;-65
2022/01/28 11:06:57;;;;;;;5.27;3.63;;;;;;;5.81;89.33;99861.38;5106171;28;20680;-65
2022/01/28 11:09:24;;;;;;;8.63;3.80;;;;;;;5.82;87.62;99873.59;5107950;28;20215;-66
2022/01/28 11:11:51;;;;;;;6.77;3.13;;;;;;;5.78;88.10;99878.03;5106423;28;20258;-65
2022/01/28 11:14:20;;;;;;;6.27;3.43;;;;;;;5.87;86.83;99874.38;5102135;28;20231;-66
2022/01/28 11:16:47;;;;;;;4.67;3.30;;;;;;;5.82;85.27;99874.47;5107521;28;20318;-65
2022/01/28 11:19:16;;;;;;;7.37;3.40;;;;;;;5.89;86.17;99877.81;5107950;28;20211;-65
2022/01/28 11:21:56;;;;;;;7.17;3.23;;;;;;;5.90;87.11;99877.78;5104936;28;20224;-65
2022/01/28 11:24:36;;;;;;;7.33;4.03;;;;;;;5.81;87.17;99882.38;5106996;28;20234;-65
2022/01/28 11:27:10;;;;;;;7.87;4.10;;;;;;;5.67;88.66;99880.03;5107494;28;20216;-65
2022/01/28 11:29:38;;;;;;;8.00;3.97;;;;;;;5.73;89.80;99886.91;5103541;28;20243;-66
2022/01/28 11:32:14;;;;;;;11.80;4.37;;;;;;;6.01;87.35;99869.66;5103597;28;20226;-66
2022/01/28 11:34:57;;;;;;;6.97;4.07;;;;;;;6.25;86.11;99874.31;5107354;28;20215;-66
2022/01/28 11:37:28;;;;;;;7.57;4.60;;;;;;;6.39;85.85;99877.44;5104918;28;20235;-66
2022/01/28 11:39:55;;;;;;;9.17;4.27;;;;;;;6.38;84.96;99870.47;5102505;28;20593;-66
2022/01/28 11:42:27;;;;;;;6.47;3.93;;;;;;;6.25;86.65;99863.81;5107083;28;20219;-66
2022/01/28 11:44:56;;;;;;;8.73;4.43;;;;;;;6.12;86.78;99876.34;5107270;27;20208;-66
2022/01/28 11:47:25;;;;;;;6.17;4.00;;;;;;;6.11;87.15;99871.16;5103497;28;20217;-66
2022/01/28 11:49:59;;;;;;;8.77;4.73;;;;;;;6.17;88.72;99871.03;5105554;28;20221;-65
2022/01/28 11:52:29;;;;;;;9.53;4.53;;;;;;;6.18;87.62;99873.59;5106929;28;20218;-66
2022/01/28 11:54:56;;;;;;;9.47;4.70;;;;;;;6.04;88.72;99870.44;5104631;28;20217;-66
2022/01/28 11:57:26;;;;;;;8.07;5.03;;;;;;;6.02;88.36;99869.63;5100529;28;20242;-65
2022/01/28 12:00:15;;;;;;;10.07;4.93;;;;;;;5.89;89.41;99864.69;5078387;28;20288;-65
2022/01/28 12:02:50;;;;;;;7.50;4.30;;;;;;;5.85;88.49;99853.41;5093889;28;20215;-65
2022/01/28 12:05:51;;;;;;;11.20;4.50;;;;;;;5.90;87.49;99872.53;5088081;28;20256;-66
2022/01/28 12:08:20;;;;;;;10.40;4.60;;;;;;;5.86;86.60;99878.75;5075938;28;20558;-65
2022/01/28 12:10:49;;;;;;;8.27;4.67;;;;;;;5.90;87.80;99877.78;5092645;28;20211;-65
2022/01/28 12:13:17;;;;;;;8.70;4.77;;;;;;;5.87;87.08;99874.38;5104929;28;20235;-65
2022/01/28 12:16:10;;;;;;;7.10;4.50;;;;;;;5.87;88.26;99875.22;5098391;28;20326;-65
2022/01/28 12:18:53;;;;;;;8.47;4.37;;;;;;;5.95;87.03;99865.41;5109596;28;20211;-65
2022/01/28 12:21:23;;;;;;;10.90;5.00;;;;;;;5.96;87.82;99869.75;5109591;28;20313;-64
2022/01/28 12:23:51;;;;;;;7.90;4.40;;;;;;;5.92;86.33;99864.63;5109983;28;20753;-65
2022/01/28 12:26:19;;;;;;;5.40;3.40;;;;;;;5.90;85.75;99862.03;5099784;28;20302;-65
2022/01/28 12:28:49;;;;;;;8.90;4.13;;;;;;;5.84;86.05;99867.44;5091793;28;20218;-66
2022/01/28 12:31:25;;;;;;;9.03;4.57;;;;;;;5.75;87.57;99867.59;5105791;28;20214;-65